Time;durP1;ratioP1;P1;durP2;ratioP2;P2;SDS_P1;SDS_P2;PMS_P1;PMS_P2;Temp;Humidity;BMP_temperature;BMP_pressure;BME280_temperature;BME280_humidity;BME280_pressure;Samples;Min_cycle;Max_cycle;Signal;HPM_P1;HPM_P2
2022/06/01 00:00:49;;;;;;;2.20;2.00;;;20.60;48.10;;;;;;5012689;28;20258;-68
2022/06/01 00:03:16;;;;;;;2.42;1.90;;;20.60;48.20;;;;;;5012689;28;20315;-67
2022/06/01 00:05:43;;;;;;;1.80;1.70;;;20.60;48.20;;;;;;5012952;28;20197;-67
2022/06/01 00:08:12;;;;;;;1.88;1.70;;;20.60;48.20;;;;;;5012507;28;20200;-68
2022/06/01 00:10:39;;;;;;;1.90;1.80;;;20.60;48.20;;;;;;5012588;28;20324;-68
2022/06/01 00:13:06;;;;;;;1.88;1.77;;;20.50;48.10;;;;;;5012512;28;20275;-68
2022/06/01 00:15:33;;;;;;;2.08;1.90;;;20.50;48.20;;;;;;5012997;28;20283;-68
2022/06/01 00:18:01;;;;;;;2.10;1.90;;;20.50;48.30;;;;;;5012448;28;20193;-67
2022/06/01 00:20:28;;;;;;;2.10;1.90;;;20.50;48.20;;;;;;5012686;28;20224;-68
2022/06/01 00:22:56;;;;;;;1.83;1.73;;;20.50;48.30;;;;;;5012707;28;20263;-68
2022/06/01 00:25:24;;;;;;;1.92;1.83;;;20.50;48.20;;;;;;5012600;28;20204;-68
2022/06/01 00:27:52;;;;;;;2.00;1.90;;;20.50;48.40;;;;;;5012092;28;20300;-68
2022/06/01 00:30:19;;;;;;;2.00;1.90;;;20.40;48.30;;;;;;5012087;28;20312;-67
2022/06/01 00:32:46;;;;;;;1.67;1.58;;;20.40;48.40;;;;;;5012166;28;20205;-68
2022/06/01 00:35:16;;;;;;;2.00;1.90;;;20.40;48.40;;;;;;5012132;28;20204;-67
2022/06/01 00:37:43;;;;;;;2.10;1.95;;;20.40;48.50;;;;;;5012159;28;20212;-67
2022/06/01 00:40:11;;;;;;;2.00;1.90;;;20.40;48.40;;;;;;5012382;28;20193;-68
2022/06/01 00:42:41;;;;;;;2.03;1.73;;;20.40;48.40;;;;;;5012059;28;20196;-68
2022/06/01 00:45:09;;;;;;;1.90;1.80;;;20.40;48.40;;;;;;5012283;28;20688;-68
2022/06/01 00:47:36;;;;;;;1.90;1.80;;;20.40;48.50;;;;;;5012061;28;20247;-68
2022/06/01 00:50:05;;;;;;;1.73;1.63;;;20.30;48.30;;;;;;5012992;28;20216;-68
2022/06/01 00:52:36;;;;;;;1.80;1.70;;;20.30;48.50;;;;;;5012191;28;20648;-67
2022/06/01 00:55:09;;;;;;;1.80;1.70;;;20.30;48.50;;;;;;5015681;28;20188;-67
2022/06/01 00:57:36;;;;;;;2.00;1.83;;;20.30;48.50;;;;;;5015603;28;20220;-67
2022/06/01 01:00:06;;;;;;;1.73;1.63;;;20.30;48.50;;;;;;5015526;28;20612;-67
2022/06/01 01:02:34;;;;;;;1.70;1.60;;;20.30;48.60;;;;;;5015608;28;20545;-67
2022/06/01 01:05:01;;;;;;;2.10;1.90;;;20.30;48.60;;;;;;5015412;28;20201;-67
2022/06/01 01:07:28;;;;;;;2.00;1.90;;;20.30;48.60;;;;;;5015313;28;20196;-68
2022/06/01 01:09:55;;;;;;;1.80;1.70;;;20.30;48.60;;;;;;5015267;28;20872;-67
2022/06/01 01:12:22;;;;;;;1.80;1.70;;;20.20;48.60;;;;;;5015560;28;20299;-68
2022/06/01 01:14:51;;;;;;;2.35;1.75;;;20.20;48.50;;;;;;5015403;28;20759;-67
2022/06/01 01:17:21;;;;;;;1.80;1.70;;;20.20;48.60;;;;;;5015800;28;20266;-68
2022/06/01 01:19:49;;;;;;;1.90;1.80;;;20.20;48.60;;;;;;5015827;28;20301;-68
2022/06/01 01:22:32;;;;;;;2.00;1.90;;;20.20;48.60;;;;;;5015143;28;20196;-67
2022/06/01 01:25:18;;;;;;;2.00;1.90;;;20.20;48.60;;;;;;5014968;28;20199;-68
2022/06/01 01:27:46;;;;;;;1.80;1.70;;;20.20;48.60;;;;;;5014954;28;20216;-68
2022/06/01 01:30:41;;;;;;;1.88;1.77;;;20.20;48.70;;;;;;5014687;28;20307;-67
2022/06/01 01:33:11;;;;;;;2.20;2.00;;;20.20;48.70;;;;;;5014746;28;20221;-68
2022/06/01 01:35:39;;;;;;;2.03;1.90;;;20.10;48.70;;;;;;5014953;28;20619;-68
2022/06/01 01:38:09;;;;;;;1.98;1.80;;;20.10;49.30;;;;;;5014711;28;20231;-68
2022/06/01 01:40:38;;;;;;;1.80;1.70;;;20.10;48.80;;;;;;5015121;28;20208;-67
2022/06/01 01:43:06;;;;;;;1.80;1.70;;;20.10;48.70;;;;;;5014622;28;20274;-68
2022/06/01 01:45:36;;;;;;;1.95;1.85;;;20.10;48.80;;;;;;5014394;28;20197;-67
2022/06/01 01:48:03;;;;;;;1.80;1.70;;;20.10;48.80;;;;;;5014401;28;20576;-67
2022/06/01 01:50:30;;;;;;;1.80;1.70;;;20.10;48.80;;;;;;5014315;28;20217;-68
2022/06/01 01:52:57;;;;;;;1.90;1.80;;;20.00;48.80;;;;;;5014383;28;20220;-67
2022/06/01 01:55:32;;;;;;;1.80;1.70;;;20.00;48.80;;;;;;5014438;28;20279;-68
2022/06/01 01:58:04;;;;;;;1.67;1.58;;;20.10;49.50;;;;;;5014541;28;20252;-67
2022/06/01 02:00:34;;;;;;;1.80;1.70;;;20.00;48.90;;;;;;5014344;28;20192;-67
2022/06/01 02:03:04;;;;;;;1.70;1.60;;;20.00;49.60;;;;;;5014048;28;20212;-69
2022/06/01 02:08:23;;;;;;;1.80;1.70;;;20.00;49.00;;;;;;5014234;28;20208;-68
2022/06/01 02:13:36;;;;;;;1.67;1.58;;;20.00;49.00;;;;;;5014050;28;20213;-69
2022/06/01 02:16:04;;;;;;;1.85;1.75;;;20.00;49.10;;;;;;5013900;28;20201;-69
2022/06/01 02:18:32;;;;;;;1.85;1.70;;;20.00;49.00;;;;;;5013744;28;20259;-69
2022/06/01 02:21:01;;;;;;;1.92;1.83;;;20.00;49.10;;;;;;5013656;28;20234;-68
2022/06/01 02:23:30;;;;;;;1.80;1.70;;;20.00;49.10;;;;;;5013589;28;20223;-69
2022/06/01 02:25:58;;;;;;;1.70;1.60;;;20.00;49.10;;;;;;5013796;28;20197;-68
2022/06/01 02:28:25;;;;;;;1.85;1.75;;;19.90;49.00;;;;;;5014185;28;20197;-68
2022/06/01 02:30:54;;;;;;;2.00;1.90;;;19.90;49.10;;;;;;5013591;28;20244;-68
2022/06/01 02:33:24;;;;;;;1.92;1.80;;;19.90;49.00;;;;;;5014594;28;20248;-69
2022/06/01 02:35:53;;;;;;;2.08;1.55;;;19.90;49.10;;;;;;5013406;28;20205;-67
2022/06/01 02:38:22;;;;;;;1.85;1.75;;;19.90;49.00;;;;;;5013103;28;20208;-68
2022/06/01 02:40:49;;;;;;;1.80;1.70;;;19.90;49.20;;;;;;5013352;28;20189;-68
2022/06/01 02:43:16;;;;;;;1.52;1.42;;;19.90;49.20;;;;;;5013128;28;20252;-69
2022/06/01 02:45:44;;;;;;;1.80;1.70;;;19.90;49.20;;;;;;5013224;28;20228;-69
2022/06/01 02:48:13;;;;;;;1.90;1.80;;;19.90;49.20;;;;;;5013175;28;20699;-68
2022/06/01 02:50:40;;;;;;;1.70;1.60;;;19.80;49.20;;;;;;5013088;28;20271;-69
2022/06/01 02:53:07;;;;;;;1.92;1.83;;;19.90;49.30;;;;;;5013012;28;20253;-69
2022/06/01 02:55:34;;;;;;;1.88;1.77;;;19.80;49.80;;;;;;5013213;28;20259;-68
2022/06/01 02:58:02;;;;;;;1.70;1.60;;;19.80;49.10;;;;;;5013158;28;20193;-68
2022/06/01 03:00:30;;;;;;;1.70;1.60;;;19.80;49.10;;;;;;5013128;28;20270;-68
2022/06/01 03:02:58;;;;;;;1.60;1.50;;;19.80;49.20;;;;;;5012936;28;20228;-68
2022/06/01 03:05:28;;;;;;;2.08;1.88;;;19.80;49.20;;;;;;5013001;28;20673;-68
2022/06/01 03:07:55;;;;;;;2.72;1.80;;;19.80;49.80;;;;;;5012837;28;20201;-68
2022/06/01 03:10:22;;;;;;;2.00;1.90;;;19.70;49.00;;;;;;5013034;28;20216;-69
2022/06/01 03:12:50;;;;;;;1.80;1.70;;;19.70;49.60;;;;;;5012890;28;20266;-68
2022/06/01 03:15:17;;;;;;;1.70;1.60;;;19.70;49.10;;;;;;5013789;28;20208;-69
2022/06/01 03:17:44;;;;;;;1.85;1.75;;;19.80;49.30;;;;;;5012864;28;20200;-68
2022/06/01 03:20:12;;;;;;;1.73;1.63;;;19.70;49.20;;;;;;5013025;28;20212;-68
2022/06/01 03:22:41;;;;;;;2.03;1.60;;;19.70;49.20;;;;;;5012709;28;20200;-68
2022/06/01 03:25:10;;;;;;;1.88;1.77;;;19.80;49.30;;;;;;5012818;28;20251;-68
2022/06/01 03:27:38;;;;;;;2.00;1.90;;;19.80;49.20;;;;;;5012605;28;20296;-69
2022/06/01 03:30:06;;;;;;;1.88;1.77;;;19.80;49.00;;;;;;5012577;28;20227;-68
2022/06/01 03:32:33;;;;;;;2.08;1.90;;;19.90;49.10;;;;;;5012749;28;20203;-68
2022/06/01 03:35:00;;;;;;;1.80;1.70;;;19.90;48.80;;;;;;5012520;28;20645;-69
2022/06/01 03:37:28;;;;;;;2.25;1.58;;;19.90;48.80;;;;;;5012496;28;20744;-68
2022/06/01 03:39:57;;;;;;;1.90;1.80;;;20.00;48.70;;;;;;5012571;28;20196;-68
2022/06/01 03:42:24;;;;;;;1.70;1.60;;;20.00;48.70;;;;;;5013652;28;20216;-69
2022/06/01 03:47:35;;;;;;;2.00;1.80;;;20.00;48.60;;;;;;5012757;28;20195;-69
2022/06/01 03:50:03;;;;;;;2.30;2.10;;;20.10;48.50;;;;;;5012564;28;20248;-69
2022/06/01 03:52:30;;;;;;;2.00;1.90;;;20.10;48.50;;;;;;5012523;28;20197;-69
2022/06/01 03:54:58;;;;;;;1.83;1.73;;;20.10;48.50;;;;;;5012875;28;20204;-69
2022/06/01 03:57:25;;;;;;;1.80;1.70;;;20.10;48.40;;;;;;5021137;28;20200;-69
2022/06/01 03:59:52;;;;;;;2.10;1.90;;;20.10;48.40;;;;;;5026047;28;20244;-68
2022/06/01 04:02:19;;;;;;;2.10;2.00;;;20.10;48.40;;;;;;5025819;28;20197;-68
2022/06/01 04:04:46;;;;;;;1.65;1.55;;;20.10;48.30;;;;;;5013804;28;20307;-69
2022/06/01 04:07:13;;;;;;;1.95;1.85;;;20.20;48.40;;;;;;5012734;28;20549;-69
2022/06/01 04:09:41;;;;;;;1.98;1.80;;;20.10;48.90;;;;;;5012587;28;20250;-68
2022/06/01 04:12:10;;;;;;;1.80;1.70;;;20.10;48.30;;;;;;5012873;28;20625;-69
2022/06/01 04:14:37;;;;;;;1.90;1.75;;;20.10;48.30;;;;;;5012417;28;20216;-68
2022/06/01 04:17:05;;;;;;;1.88;1.77;;;20.10;48.20;;;;;;5012579;28;20205;-69
2022/06/01 04:19:32;;;;;;;1.88;1.77;;;20.20;48.30;;;;;;5012119;28;20288;-69
2022/06/01 04:21:59;;;;;;;1.80;1.70;;;20.20;48.20;;;;;;5012507;28;20189;-69
2022/06/01 04:24:28;;;;;;;1.85;1.75;;;20.10;48.20;;;;;;5012256;28;20274;-69
2022/06/01 04:26:55;;;;;;;1.80;1.70;;;20.20;48.30;;;;;;5012547;28;20304;-69
2022/06/01 04:29:23;;;;;;;1.85;1.75;;;20.20;48.10;;;;;;5015459;28;20271;-69
2022/06/01 04:31:50;;;;;;;2.13;1.98;;;20.20;48.20;;;;;;5016114;28;20217;-69
2022/06/01 04:34:18;;;;;;;2.00;1.90;;;20.20;48.70;;;;;;5016020;28;20221;-68
2022/06/01 04:36:45;;;;;;;1.67;1.58;;;20.20;48.10;;;;;;5015809;28;20205;-69
2022/06/01 04:39:12;;;;;;;1.90;1.73;;;20.20;48.10;;;;;;5015807;28;20221;-69
2022/06/01 04:41:39;;;;;;;1.80;1.70;;;20.30;48.20;;;;;;5015858;28;20189;-69
2022/06/01 04:44:07;;;;;;;1.80;1.70;;;20.40;48.00;;;;;;5015688;28;20220;-69
2022/06/01 04:46:36;;;;;;;2.00;1.85;;;20.50;47.80;;;;;;5015737;28;20203;-69
2022/06/01 04:49:03;;;;;;;2.22;1.80;;;20.70;47.30;;;;;;5015548;28;20201;-69
2022/06/01 04:51:30;;;;;;;1.85;1.75;;;21.00;46.90;;;;;;5015587;28;20231;-69
2022/06/01 04:53:57;;;;;;;2.20;2.10;;;21.20;46.60;;;;;;5015406;28;20224;-68
2022/06/01 04:56:24;;;;;;;1.92;1.83;;;21.40;46.10;;;;;;5015563;28;20621;-69
2022/06/01 04:58:51;;;;;;;2.20;2.10;;;21.60;46.30;;;;;;5015534;28;20657;-69
2022/06/01 05:01:19;;;;;;;3.33;2.28;;;21.70;45.30;;;;;;5015504;28;20609;-69
2022/06/01 05:03:47;;;;;;;1.83;1.73;;;21.90;45.00;;;;;;5015607;28;20570;-69
2022/06/01 05:06:14;;;;;;;2.25;2.05;;;22.10;44.70;;;;;;5015561;28;20205;-69
2022/06/01 05:08:41;;;;;;;2.33;2.13;;;22.20;44.70;;;;;;5015731;28;20212;-69
2022/06/01 05:11:08;;;;;;;3.85;2.30;;;22.30;44.30;;;;;;5015723;28;20256;-69
2022/06/01 05:13:35;;;;;;;2.42;2.20;;;22.40;44.30;;;;;;5015537;28;20227;-70
2022/06/01 05:16:02;;;;;;;2.60;2.40;;;22.50;44.80;;;;;;5015521;28;20247;-69
2022/06/01 05:18:30;;;;;;;2.30;2.10;;;22.60;44.00;;;;;;5015658;28;20196;-69
2022/06/01 05:20:58;;;;;;;2.50;2.30;;;22.80;43.70;;;;;;5016203;28;20193;-69
2022/06/01 05:23:26;;;;;;;2.30;2.10;;;22.90;43.80;;;;;;5015429;28;20219;-70
2022/06/01 05:25:54;;;;;;;2.55;2.35;;;22.90;43.60;;;;;;5015234;28;20201;-69
2022/06/01 05:28:25;;;;;;;2.40;2.20;;;23.00;43.60;;;;;;5015566;28;20299;-69
2022/06/01 05:30:56;;;;;;;2.20;2.00;;;23.10;43.30;;;;;;5015359;28;20282;-68
2022/06/01 05:33:23;;;;;;;2.90;2.33;;;23.20;43.10;;;;;;5015113;28;20236;-70
2022/06/01 05:35:50;;;;;;;2.10;2.00;;;23.30;43.10;;;;;;5014883;28;20247;-70
2022/06/01 05:38:18;;;;;;;2.75;2.17;;;23.40;43.10;;;;;;5015382;28;20212;-69
2022/06/01 05:40:46;;;;;;;2.70;2.28;;;23.50;43.00;;;;;;5014705;28;20231;-69
2022/06/01 05:43:14;;;;;;;2.50;2.30;;;23.50;42.80;;;;;;5014647;28;20271;-70
2022/06/01 05:45:41;;;;;;;2.45;2.25;;;23.60;42.60;;;;;;5014730;28;20196;-69
2022/06/01 05:48:08;;;;;;;2.15;1.95;;;23.70;42.70;;;;;;5014976;28;20208;-68
2022/06/01 05:50:35;;;;;;;2.20;2.00;;;23.80;42.50;;;;;;5014690;28;20220;-69
2022/06/01 05:53:02;;;;;;;2.60;2.40;;;23.90;42.80;;;;;;5014823;28;20304;-68
2022/06/01 05:55:31;;;;;;;2.72;2.10;;;24.00;42.70;;;;;;5014314;28;20204;-70
2022/06/01 05:57:58;;;;;;;2.35;2.10;;;24.00;42.40;;;;;;5014282;28;20261;-70
2022/06/01 06:00:25;;;;;;;2.25;2.00;;;24.10;42.10;;;;;;5014305;28;20200;-70
2022/06/01 06:02:52;;;;;;;2.03;1.90;;;24.20;41.80;;;;;;5014254;28;20693;-69
2022/06/01 06:08:05;;;;;;;1.85;1.75;;;24.30;41.60;;;;;;5014476;28;20287;-69
2022/06/01 06:10:33;;;;;;;2.20;2.00;;;24.30;41.40;;;;;;5014088;28;20312;-70
2022/06/01 06:13:00;;;;;;;2.05;1.92;;;24.40;41.30;;;;;;5014055;28;20228;-70
2022/06/01 06:15:28;;;;;;;1.95;1.77;;;24.50;41.30;;;;;;5014108;28;20369;-70
2022/06/01 06:17:55;;;;;;;1.75;1.65;;;24.50;41.30;;;;;;5013990;28;20204;-70
2022/06/01 06:20:22;;;;;;;1.83;1.70;;;24.60;41.80;;;;;;5013891;28;20299;-69
2022/06/01 06:22:49;;;;;;;2.10;1.90;;;24.70;41.00;;;;;;5014256;28;20301;-71
2022/06/01 06:25:16;;;;;;;2.05;1.77;;;24.70;40.70;;;;;;5014119;28;20204;-70
2022/06/01 06:27:45;;;;;;;1.73;1.63;;;24.80;40.70;;;;;;5013884;28;20622;-70
2022/06/01 06:30:15;;;;;;;1.98;1.88;;;24.80;40.50;;;;;;5013552;28;20376;-70
2022/06/01 06:32:42;;;;;;;1.90;1.80;;;24.90;40.60;;;;;;5013875;28;20203;-70
2022/06/01 06:35:09;;;;;;;1.77;1.67;;;24.90;40.40;;;;;;5013739;28;20208;-68
2022/06/01 06:37:37;;;;;;;3.10;1.98;;;25.00;40.30;;;;;;5013673;28;20204;-68
2022/06/01 06:40:05;;;;;;;2.53;1.70;;;25.10;40.10;;;;;;5013816;28;20200;-67
2022/06/01 06:42:32;;;;;;;2.13;1.80;;;25.10;40.00;;;;;;5013579;28;20284;-68
2022/06/01 06:45:03;;;;;;;2.25;2.05;;;25.20;39.80;;;;;;5013523;28;20208;-68
2022/06/01 06:47:32;;;;;;;1.80;1.70;;;25.30;39.70;;;;;;5013799;28;20193;-68
2022/06/01 06:49:59;;;;;;;3.17;1.80;;;25.30;39.60;;;;;;5013506;28;20205;-68
2022/06/01 06:52:26;;;;;;;2.00;1.70;;;25.30;39.40;;;;;;5013212;28;20208;-68
2022/06/01 06:54:53;;;;;;;2.00;1.80;;;25.40;39.20;;;;;;5013779;28;20221;-67
2022/06/01 06:57:21;;;;;;;2.45;1.90;;;25.50;39.80;;;;;;5016904;28;20208;-69
2022/06/01 06:59:49;;;;;;;2.05;1.95;;;25.50;39.00;;;;;;5016538;28;20215;-68
2022/06/01 07:02:17;;;;;;;1.70;1.60;;;25.60;39.00;;;;;;5014134;28;20200;-68
2022/06/01 07:04:45;;;;;;;1.98;1.88;;;25.60;39.50;;;;;;5016117;28;20712;-68
2022/06/01 07:07:12;;;;;;;1.70;1.60;;;25.70;39.40;;;;;;5038475;28;20215;-69
2022/06/01 07:09:39;;;;;;;2.63;1.80;;;25.70;38.70;;;;;;5021288;28;20204;-68
2022/06/01 07:12:06;;;;;;;2.35;1.83;;;25.80;38.60;;;;;;5014882;28;20244;-68
2022/06/01 07:14:34;;;;;;;1.95;1.70;;;25.80;38.50;;;;;;5014188;28;20315;-68
2022/06/01 07:17:01;;;;;;;1.92;1.83;;;25.90;38.40;;;;;;5014459;28;20239;-68
2022/06/01 07:19:30;;;;;;;1.92;1.83;;;25.90;38.20;;;;;;5016292;28;20197;-68
2022/06/01 07:21:57;;;;;;;1.90;1.80;;;25.90;38.10;;;;;;5014228;28;20216;-70
2022/06/01 07:24:24;;;;;;;1.73;1.63;;;26.00;38.10;;;;;;5014184;28;20224;-69
2022/06/01 07:26:52;;;;;;;1.70;1.60;;;26.00;38.70;;;;;;5016786;28;20235;-67
2022/06/01 07:29:20;;;;;;;1.80;1.70;;;26.10;38.00;;;;;;5013685;28;20209;-68
2022/06/01 07:31:47;;;;;;;2.00;1.80;;;26.10;37.90;;;;;;5013196;28;20569;-68
2022/06/01 07:34:14;;;;;;;2.15;1.73;;;26.10;37.90;;;;;;5012881;28;20227;-68
2022/06/01 07:36:45;;;;;;;1.60;1.50;;;26.10;38.30;;;;;;5012920;28;20212;-68
2022/06/01 07:44:44;;;;;;;2.25;1.90;;;26.20;37.50;;;;;;5012912;28;20208;-68
2022/06/01 07:47:12;;;;;;;1.90;1.80;;;26.30;37.50;;;;;;5012912;28;20632;-68
2022/06/01 07:49:39;;;;;;;2.00;1.90;;;26.40;37.50;;;;;;5012659;28;20204;-68
2022/06/01 07:52:09;;;;;;;1.80;1.70;;;26.40;37.40;;;;;;5012621;28;20235;-68
2022/06/01 07:54:37;;;;;;;1.98;1.80;;;26.40;37.50;;;;;;5012800;28;20221;-68
2022/06/01 07:57:04;;;;;;;1.70;1.60;;;26.40;37.20;;;;;;5013000;28;20662;-68
2022/06/01 07:59:31;;;;;;;1.90;1.80;;;26.40;37.10;;;;;;5013121;28;20201;-68
2022/06/01 08:01:59;;;;;;;2.05;1.92;;;26.50;37.10;;;;;;5014611;28;20692;-68
2022/06/01 08:04:26;;;;;;;1.90;1.80;;;26.50;37.00;;;;;;5017431;28;20224;-68
2022/06/01 08:06:54;;;;;;;1.75;1.65;;;26.50;36.90;;;;;;5016557;28;20193;-68
2022/06/01 08:09:23;;;;;;;1.80;1.70;;;26.60;37.00;;;;;;5016589;28;20196;-68
2022/06/01 08:14:34;;;;;;;1.70;1.60;;;26.60;36.90;;;;;;5018062;28;20243;-69
2022/06/01 08:17:02;;;;;;;1.80;1.70;;;26.60;36.80;;;;;;5020583;28;20201;-68
2022/06/01 08:19:29;;;;;;;1.80;1.70;;;26.60;36.70;;;;;;5017035;28;20223;-68
2022/06/01 08:21:56;;;;;;;1.80;1.70;;;26.60;37.30;;;;;;5016341;28;20251;-68
2022/06/01 08:24:25;;;;;;;1.80;1.70;;;26.60;36.60;;;;;;5016435;28;20778;-68
2022/06/01 08:26:52;;;;;;;1.70;1.60;;;26.60;36.60;;;;;;5016210;28;20201;-68
2022/06/01 08:29:20;;;;;;;1.83;1.63;;;26.70;36.60;;;;;;5016079;28;20204;-68
2022/06/01 08:31:48;;;;;;;1.77;1.67;;;26.60;36.50;;;;;;5015878;28;20209;-68
2022/06/01 08:34:16;;;;;;;1.75;1.65;;;26.60;36.50;;;;;;5015869;28;20220;-68
2022/06/01 08:36:43;;;;;;;1.80;1.70;;;26.60;36.70;;;;;;5015833;28;20295;-68
2022/06/01 08:39:10;;;;;;;1.80;1.70;;;26.50;36.90;;;;;;5015854;28;20197;-68
2022/06/01 08:41:39;;;;;;;1.85;1.70;;;26.40;37.60;;;;;;5015613;28;20552;-68
2022/06/01 08:44:08;;;;;;;2.22;2.00;;;26.20;37.30;;;;;;5015509;28;20224;-68
2022/06/01 08:46:36;;;;;;;2.08;1.75;;;26.00;37.60;;;;;;5015735;28;20208;-68
2022/06/01 08:49:05;;;;;;;2.00;1.80;;;25.90;38.00;;;;;;5015800;28;20200;-68
2022/06/01 08:51:32;;;;;;;1.75;1.65;;;25.80;38.70;;;;;;5016621;28;20263;-68
2022/06/01 08:54:00;;;;;;;1.80;1.70;;;25.70;38.30;;;;;;5015621;28;20628;-68
2022/06/01 08:56:31;;;;;;;1.80;1.70;;;25.70;38.40;;;;;;5015654;28;20657;-68
2022/06/01 08:59:04;;;;;;;1.85;1.75;;;25.70;38.30;;;;;;5015918;28;20665;-67
2022/06/01 09:01:37;;;;;;;1.88;1.77;;;25.80;38.10;;;;;;5015737;28;20220;-68
2022/06/01 09:04:08;;;;;;;1.50;1.40;;;25.90;37.90;;;;;;5015663;28;20224;-68
2022/06/01 09:06:36;;;;;;;1.70;1.60;;;26.00;37.70;;;;;;5015905;28;20715;-68
2022/06/01 09:09:05;;;;;;;1.80;1.70;;;26.10;38.20;;;;;;5015293;28;20193;-68
2022/06/01 09:11:34;;;;;;;1.77;1.65;;;26.20;37.50;;;;;;5015199;28;20216;-69
2022/06/01 09:14:06;;;;;;;1.77;1.67;;;26.20;37.50;;;;;;5014381;28;20282;-69
2022/06/01 09:16:36;;;;;;;1.65;1.55;;;26.20;37.40;;;;;;5015284;28;20289;-69
2022/06/01 09:19:03;;;;;;;1.90;1.80;;;26.30;37.40;;;;;;5015169;28;20653;-69
2022/06/01 09:24:19;;;;;;;1.73;1.63;;;26.30;37.90;;;;;;5015257;28;20697;-68
2022/06/01 09:26:52;;;;;;;1.60;1.50;;;26.30;37.20;;;;;;5014835;28;20196;-68
2022/06/01 09:29:22;;;;;;;1.80;1.70;;;26.30;37.30;;;;;;5014839;28;20203;-68
2022/06/01 09:31:50;;;;;;;1.67;1.58;;;26.10;37.50;;;;;;5014847;28;20219;-68
2022/06/01 09:34:22;;;;;;;1.83;1.70;;;26.00;37.70;;;;;;5014805;28;20232;-67
2022/06/01 09:36:57;;;;;;;1.50;1.40;;;25.90;38.00;;;;;;5014960;28;20209;-68
2022/06/01 09:39:24;;;;;;;1.70;1.60;;;25.70;38.20;;;;;;5014914;28;20581;-68
2022/06/01 09:41:52;;;;;;;1.70;1.60;;;25.60;38.50;;;;;;5015378;28;20204;-69
2022/06/01 09:44:32;;;;;;;1.70;1.60;;;25.50;38.60;;;;;;5015016;28;20221;-69
2022/06/01 09:47:00;;;;;;;1.70;1.60;;;25.40;38.80;;;;;;5015049;28;20251;-68
2022/06/01 09:49:29;;;;;;;1.60;1.50;;;25.50;38.80;;;;;;5014646;28;20254;-68
2022/06/01 09:51:58;;;;;;;1.60;1.50;;;25.50;38.80;;;;;;5014932;28;20213;-68
2022/06/01 09:54:30;;;;;;;1.80;1.70;;;25.50;38.70;;;;;;5014978;28;20213;-68
2022/06/01 09:56:57;;;;;;;1.60;1.50;;;25.50;38.70;;;;;;5014943;28;20203;-68
2022/06/01 10:08:03;;;;;;;1.70;1.60;;;25.30;39.10;;;;;;5014385;28;20208;-68
2022/06/01 10:10:30;;;;;;;1.83;1.73;;;25.30;39.10;;;;;;5014266;28;20185;-68
2022/06/01 10:12:58;;;;;;;1.77;1.67;;;25.40;39.10;;;;;;5014102;28;20230;-68
2022/06/01 10:15:30;;;;;;;2.00;1.80;;;25.40;39.00;;;;;;5013934;28;20209;-68
2022/06/01 10:17:59;;;;;;;1.85;1.75;;;25.40;38.90;;;;;;5013973;28;20188;-68
2022/06/01 10:20:28;;;;;;;1.73;1.60;;;25.40;38.90;;;;;;5013859;28;20201;-68
2022/06/01 10:22:58;;;;;;;1.60;1.50;;;25.40;38.90;;;;;;5013786;28;20244;-68
2022/06/01 10:25:29;;;;;;;1.70;1.60;;;25.40;38.90;;;;;;5012861;28;20197;-68
2022/06/01 10:27:58;;;;;;;1.60;1.50;;;25.40;39.00;;;;;;5013855;28;20641;-68
2022/06/01 10:30:26;;;;;;;1.58;1.48;;;25.40;39.00;;;;;;5013867;28;20196;-69
2022/06/01 10:32:57;;;;;;;1.60;1.50;;;25.40;39.60;;;;;;5013478;28;20252;-68
2022/06/01 10:35:35;;;;;;;1.48;1.38;;;25.40;39.00;;;;;;5013678;28;20216;-68
2022/06/01 10:38:10;;;;;;;1.70;1.60;;;25.40;39.10;;;;;;5013332;28;20250;-68
2022/06/01 10:40:39;;;;;;;1.83;1.73;;;25.40;39.10;;;;;;5013439;28;20215;-70
2022/06/01 10:43:18;;;;;;;1.73;1.63;;;25.40;39.20;;;;;;5013587;28;20217;-68
2022/06/01 10:45:49;;;;;;;1.58;1.48;;;25.30;39.20;;;;;;5013298;28;20192;-68
2022/06/01 10:48:22;;;;;;;1.70;1.60;;;25.30;39.30;;;;;;5013306;28;20624;-68
2022/06/01 10:50:53;;;;;;;1.58;1.48;;;25.30;39.30;;;;;;5013459;28;20608;-68
2022/06/01 10:53:26;;;;;;;1.70;1.60;;;25.30;39.30;;;;;;5013267;28;20271;-68
2022/06/01 10:55:53;;;;;;;1.70;1.60;;;25.20;39.30;;;;;;5013124;28;20725;-67
2022/06/01 10:58:23;;;;;;;1.60;1.50;;;25.30;39.30;;;;;;5013509;28;20278;-68
2022/06/01 11:00:50;;;;;;;1.50;1.40;;;25.20;39.40;;;;;;5013322;28;20208;-68
2022/06/01 11:03:37;;;;;;;1.55;1.45;;;25.20;39.50;;;;;;5013156;28;20274;-69
2022/06/01 11:06:12;;;;;;;1.67;1.40;;;25.10;39.60;;;;;;5013130;28;20587;-68
2022/06/01 11:08:44;;;;;;;1.63;1.50;;;25.10;39.70;;;;;;5013035;28;20196;-68
2022/06/01 11:11:12;;;;;;;1.58;1.48;;;25.10;39.70;;;;;;5012834;28;20204;-68
2022/06/01 11:13:59;;;;;;;1.50;1.40;;;25.10;39.70;;;;;;5012754;28;20314;-69
2022/06/01 11:16:33;;;;;;;1.50;1.40;;;25.10;39.80;;;;;;5014082;28;20177;-68
2022/06/01 11:19:09;;;;;;;1.88;1.42;;;25.10;39.80;;;;;;5012716;28;20196;-68
2022/06/01 11:21:45;;;;;;;1.50;1.40;;;25.10;39.80;;;;;;5012791;28;20231;-68
2022/06/01 11:24:31;;;;;;;1.70;1.60;;;25.10;39.80;;;;;;5013854;28;20200;-68
2022/06/01 11:27:05;;;;;;;1.40;1.40;;;25.10;39.90;;;;;;5012837;28;20193;-68
2022/06/01 11:29:41;;;;;;;1.50;1.40;;;25.10;39.90;;;;;;5012606;28;20184;-68
2022/06/01 11:32:11;;;;;;;1.65;1.45;;;25.10;39.90;;;;;;5012908;28;20248;-68
2022/06/01 11:34:43;;;;;;;1.55;1.45;;;25.10;39.90;;;;;;5012524;28;20221;-68
2022/06/01 11:37:12;;;;;;;1.60;1.50;;;25.10;39.90;;;;;;5012156;28;20560;-68
2022/06/01 11:39:42;;;;;;;1.50;1.40;;;25.10;39.90;;;;;;5012567;28;20225;-68
2022/06/01 11:42:10;;;;;;;1.70;1.60;;;25.10;40.00;;;;;;5012202;28;20204;-68
2022/06/01 11:44:39;;;;;;;1.63;1.52;;;25.10;39.90;;;;;;5012357;28;20217;-68
2022/06/01 11:47:09;;;;;;;1.50;1.40;;;25.10;39.90;;;;;;5012238;28;20204;-69
2022/06/01 11:49:38;;;;;;;1.70;1.60;;;25.10;39.90;;;;;;5012597;28;20267;-68
2022/06/01 11:52:27;;;;;;;1.30;1.30;;;25.10;40.00;;;;;;5012185;28;20203;-68
2022/06/01 11:55:11;;;;;;;1.20;1.20;;;25.10;40.00;;;;;;5012263;28;20658;-68
2022/06/01 11:57:45;;;;;;;1.50;1.40;;;25.10;40.00;;;;;;5012494;28;20220;-68
2022/06/01 12:00:16;;;;;;;1.52;1.42;;;25.00;40.60;;;;;;5012227;28;20800;-68
2022/06/01 12:02:44;;;;;;;1.52;1.42;;;25.10;40.10;;;;;;5043646;22;20266;-69
2022/06/01 12:05:13;;;;;;;1.50;1.40;;;25.00;40.10;;;;;;5030997;28;20251;-69
2022/06/01 12:07:45;;;;;;;1.70;1.60;;;25.00;40.10;;;;;;5020974;28;20192;-69
2022/06/01 12:10:24;;;;;;;1.67;1.58;;;25.00;40.10;;;;;;5030384;28;20193;-68
2022/06/01 12:12:59;;;;;;;4.10;1.63;;;25.00;40.30;;;;;;5030316;28;20683;-68
2022/06/01 12:15:32;;;;;;;2.28;1.60;;;25.00;40.90;;;;;;5030209;28;20219;-68
2022/06/01 12:18:20;;;;;;;1.70;1.60;;;24.90;41.20;;;;;;5030116;28;20245;-69
2022/06/01 12:20:53;;;;;;;2.83;1.45;;;24.90;41.50;;;;;;5031364;28;20185;-68
2022/06/01 12:29:33;;;;;;;1.50;1.40;;;24.90;41.90;;;;;;5032845;28;20183;-68
2022/06/01 12:32:18;;;;;;;1.60;1.50;;;24.90;41.80;;;;;;5031323;28;20200;-68
2022/06/01 12:35:08;;;;;;;3.35;1.50;;;24.90;42.30;;;;;;5032645;28;20766;-69
2022/06/01 12:37:46;;;;;;;1.50;1.40;;;24.90;42.10;;;;;;5029182;28;20233;-68
2022/06/01 12:40:17;;;;;;;1.55;1.42;;;24.90;42.10;;;;;;5031490;28;20234;-68
2022/06/01 12:42:46;;;;;;;1.70;1.60;;;24.90;42.20;;;;;;5031431;28;20603;-68
2022/06/01 12:45:16;;;;;;;1.55;1.45;;;24.90;42.90;;;;;;5031358;28;20248;-68
2022/06/01 12:47:44;;;;;;;1.48;1.38;;;24.90;42.90;;;;;;5031361;28;20211;-68
2022/06/01 12:50:12;;;;;;;2.38;1.50;;;24.90;42.90;;;;;;5034995;28;20192;-68
2022/06/01 12:52:40;;;;;;;1.60;1.50;;;24.90;42.70;;;;;;5034909;28;20219;-68
2022/06/01 12:55:08;;;;;;;1.88;1.30;;;24.90;42.40;;;;;;5036262;28;20295;-68
2022/06/01 12:57:40;;;;;;;1.42;1.33;;;24.90;42.40;;;;;;5034978;28;20679;-68
2022/06/01 13:00:09;;;;;;;1.50;1.40;;;24.90;42.50;;;;;;5034754;28;20196;-68
2022/06/01 13:02:36;;;;;;;1.45;1.30;;;24.80;42.00;;;;;;5034724;28;20196;-68
2022/06/01 13:05:04;;;;;;;1.60;1.50;;;24.80;42.20;;;;;;5036125;28;20243;-68
2022/06/01 13:07:33;;;;;;;2.00;1.50;;;24.80;42.30;;;;;;5034790;28;20238;-68
2022/06/01 13:10:01;;;;;;;1.40;1.30;;;24.80;42.20;;;;;;5034694;28;20227;-68
2022/06/01 13:12:30;;;;;;;2.05;1.50;;;24.80;42.20;;;;;;5035812;28;20234;-68
2022/06/01 13:15:12;;;;;;;1.50;1.40;;;24.80;42.20;;;;;;5034537;28;20220;-68
2022/06/01 13:17:51;;;;;;;1.77;1.50;;;24.80;42.10;;;;;;5034511;28;20249;-68
2022/06/01 13:20:18;;;;;;;1.55;1.45;;;24.80;42.00;;;;;;5034452;28;20655;-68
2022/06/01 13:22:47;;;;;;;1.55;1.45;;;24.80;42.00;;;;;;5035614;28;20192;-68
2022/06/01 13:25:17;;;;;;;1.60;1.50;;;24.80;42.00;;;;;;5035612;28;20220;-68
2022/06/01 13:27:44;;;;;;;1.60;1.50;;;24.80;42.00;;;;;;5035568;28;20687;-68
2022/06/01 13:30:15;;;;;;;1.50;1.40;;;24.70;41.90;;;;;;5034129;28;20291;-68
2022/06/01 13:32:43;;;;;;;1.50;1.40;;;24.70;42.00;;;;;;5035718;28;20208;-68
2022/06/01 13:35:20;;;;;;;1.50;1.40;;;24.70;42.00;;;;;;5034291;28;20219;-68